Time;durP1;ratioP1;P1;durP2;ratioP2;P2;SDS_P1;SDS_P2;PMS_P1;PMS_P2;Temp;Humidity;BMP_temperature;BMP_pressure;BME280_temperature;BME280_humidity;BME280_pressure;Samples;Min_cycle;Max_cycle;Signal;HPM_P1;HPM_P2
2022/12/03 00:01:56;;;;;;;70.30;49.00;;;;;;;-1.77;72.29;101484.73;108547;1267;21928;-76
2022/12/03 00:04:38;;;;;;;64.00;45.20;;;;;;;-1.78;72.40;101480.23;108486;1275;21948;-77
2022/12/03 00:07:30;;;;;;;60.00;44.50;;;;;;;-1.79;72.51;101479.71;108472;1274;22068;-77
2022/12/03 00:10:27;;;;;;;;;;;;;;;;;;;;;
2022/12/03 00:13:07;;;;;;;67.30;45.40;;;;;;;-1.74;72.60;101487.35;108633;1275;21916;-76
2022/12/03 00:15:51;;;;;;;62.60;45.50;;;;;;;-1.77;72.56;101480.62;108572;1275;24543;-77
2022/12/03 00:18:21;;;;;;;64.20;45.10;;;;;;;-1.75;72.64;101481.53;108529;1274;22379;-75
2022/12/03 00:21:21;;;;;;;68.10;46.30;;;;;;;-1.78;72.54;101478.55;108418;1274;21922;-75
2022/12/03 00:23:56;;;;;;;64.10;46.70;;;;;;;-1.77;72.68;101478.39;108522;1274;23577;-75
2022/12/03 00:26:32;;;;;;;70.40;49.10;;;;;;;-1.74;72.75;101483.09;108628;1268;23847;-74
2022/12/03 00:29:00;;;;;;;66.00;46.90;;;;;;;-1.72;72.75;101480.27;108584;1275;22022;-76
2022/12/03 00:31:36;;;;;;;63.60;45.10;;;;;;;-1.71;72.73;101479.44;108440;1275;22361;-76
2022/12/03 00:34:08;;;;;;;65.00;44.40;;;;;;;-1.74;72.72;101476.63;108286;1280;22914;-75
2022/12/03 00:36:38;;;;;;;66.50;46.50;;;;;;;-1.73;72.79;101472.88;108277;1272;24361;-75
2022/12/03 00:39:13;;;;;;;63.40;43.90;;;;;;;-1.71;72.77;101470.40;108239;1283;22734;-75
2022/12/03 00:41:53;;;;;;;;;;;;;;;;;;;;;
2022/12/03 00:44:22;;;;;;;59.40;43.50;;;;;;;-1.69;72.77;101466.34;108148;1282;23828;-76
2022/12/03 00:46:51;;;;;;;63.00;45.90;;;;;;;-1.68;72.82;101462.45;107745;1288;24517;-76
2022/12/03 00:49:19;;;;;;;70.10;48.00;;;;;;;-1.67;72.84;101461.80;107784;1286;23095;-77
2022/12/03 00:51:51;;;;;;;60.20;44.90;;;;;;;-1.64;72.90;101463.27;107775;1283;22830;-76
2022/12/03 00:54:24;;;;;;;59.30;43.50;;;;;;;-1.63;72.86;101465.17;108234;1283;22571;-76
2022/12/03 00:57:04;;;;;;;62.50;42.70;;;;;;;-1.65;72.83;101459.30;108110;1281;23687;-76
2022/12/03 00:59:44;;;;;;;;;;;;;;;-1.67;72.74;101460.77;108097;1283;21967;-75
2022/12/03 01:02:26;;;;;;;61.50;42.80;;;;;;;-1.77;72.94;101459.47;108194;1283;23059;-76
2022/12/03 01:04:59;;;;;;;60.40;41.80;;;;;;;-1.76;73.04;101461.70;108256;1275;21917;-75
2022/12/03 01:07:48;;;;;;;62.70;43.00;;;;;;;-1.79;72.99;101457.51;108526;1275;23733;-76
2022/12/03 01:10:28;;;;;;;61.20;43.20;;;;;;;-1.74;73.06;101464.48;108516;1275;21930;-76
2022/12/03 01:13:11;;;;;;;57.40;39.50;;;;;;;-1.72;73.11;101462.52;108527;1275;22393;-75
2022/12/03 01:16:10;;;;;;;65.20;41.60;;;;;;;-1.68;73.17;101462.27;108511;1275;21926;-76
2022/12/03 01:18:51;;;;;;;58.70;40.10;;;;;;;-1.64;73.06;101459.83;108459;1273;21986;-75
2022/12/03 01:21:21;;;;;;;57.10;39.80;;;;;;;-1.65;72.95;101459.64;108403;1275;22695;-76
2022/12/03 01:23:54;;;;;;;56.60;41.60;;;;;;;-1.67;73.02;101458.73;108481;1274;21943;-77
2022/12/03 01:26:27;;;;;;;60.90;42.80;;;;;;;-1.68;72.99;101461.60;108511;1275;22706;-76
2022/12/03 01:29:01;;;;;;;58.30;41.70;;;;;;;-1.66;73.01;101463.72;108466;1274;21924;-77
2022/12/03 01:34:31;;;;;;;55.30;39.60;;;;;;;-1.62;73.15;101458.55;108309;1274;22080;-76
2022/12/03 01:37:08;;;;;;;61.40;40.50;;;;;;;-1.60;73.08;101462.52;108655;1272;23038;-75
2022/12/03 01:39:42;;;;;;;57.80;40.10;;;;;;;-1.61;73.04;101461.65;108566;1265;21933;-75
2022/12/03 01:42:18;;;;;;;;;;;;;;;-1.58;73.08;101462.92;108541;1273;22177;-75
2022/12/03 01:44:59;;;;;;;57.70;38.90;;;;;;;-1.62;73.07;101459.90;108600;1274;23055;-76
2022/12/03 01:47:36;;;;;;;53.20;39.10;;;;;;;-1.64;73.15;101461.71;108576;1275;22916;-76
2022/12/03 01:50:32;;;;;;;70.50;43.40;;;;;;;-1.63;73.06;101461.21;108553;1275;23011;-76
2022/12/03 01:53:05;;;;;;;60.50;41.10;;;;;;;-1.62;73.16;101460.06;108586;1275;22180;-76
2022/12/03 01:55:42;;;;;;;59.90;40.70;;;;;;;-1.57;73.31;101455.94;108430;1274;23152;-76
2022/12/03 01:58:28;;;;;;;55.50;40.50;;;;;;;-1.52;73.20;101455.25;108437;1275;21924;-75
2022/12/03 02:01:15;;;;;;;58.60;41.30;;;;;;;-1.52;73.10;101459.00;108478;1271;22695;-76
2022/12/03 02:03:50;;;;;;;59.20;41.10;;;;;;;-1.55;72.95;101449.71;108452;1273;21918;-76
2022/12/03 02:06:27;;;;;;;68.10;44.70;;;;;;;-1.52;73.05;101448.77;108438;1275;21926;-76
2022/12/03 02:09:07;;;;;;;64.60;42.80;;;;;;;-1.51;73.09;101445.73;108153;1280;22020;-75
2022/12/03 02:11:49;;;;;;;59.10;41.10;;;;;;;-1.51;73.01;101445.70;108107;1280;22040;-76
2022/12/03 02:14:30;;;;;;;57.10;41.10;;;;;;;-1.51;73.14;101443.48;108253;1280;22476;-76
2022/12/03 02:17:06;;;;;;;64.10;43.10;;;;;;;-1.49;73.13;101441.33;108137;1280;21972;-76
2022/12/03 02:19:47;;;;;;;61.50;44.50;;;;;;;-1.47;73.12;101437.96;107998;1280;23673;-76
2022/12/03 02:22:41;;;;;;;66.60;45.10;;;;;;;-1.47;73.17;101437.64;108083;1280;22723;-77
2022/12/03 02:25:36;;;;;;;;;;;;;;;;;;;;;
2022/12/03 02:28:21;;;;;;;69.20;46.10;;;;;;;-1.43;73.25;101437.58;108451;1275;22399;-75
2022/12/03 02:30:50;;;;;;;66.20;44.20;;;;;;;-1.40;73.18;101435.27;108377;1272;21947;-76
2022/12/03 02:33:27;;;;;;;60.50;42.50;;;;;;;-1.39;73.14;101434.27;108484;1275;22908;-75
2022/12/03 02:36:05;;;;;;;62.60;42.20;;;;;;;-1.37;73.30;101435.02;108421;1275;23675;-75
2022/12/03 02:38:58;;;;;;;54.60;41.70;;;;;;;-1.36;73.24;101432.30;108510;1275;21920;-75
2022/12/03 02:44:45;;;;;;;59.80;41.70;;;;;;;-1.46;73.11;101430.98;108578;1275;21956;-75
2022/12/03 02:47:21;;;;;;;62.30;45.00;;;;;;;-1.48;73.25;101429.58;108398;1275;23093;-76
2022/12/03 02:50:30;;;;;;;65.10;43.90;;;;;;;-1.49;73.36;101427.34;108552;1275;21936;-77
2022/12/03 02:53:34;;;;;;;64.50;45.30;;;;;;;-1.51;73.44;101427.45;108567;1275;22075;-74
2022/12/03 02:56:18;;;;;;;58.50;41.90;;;;;;;-1.52;73.42;101427.92;108613;1275;22398;-75
2022/12/03 02:59:12;;;;;;;61.70;44.90;;;;;;;-1.50;73.59;101428.84;108584;1277;23139;-76
2022/12/03 03:02:19;;;;;;;62.20;42.20;;;;;;;-1.51;73.60;101428.45;108677;1275;21926;-77
2022/12/03 03:05:13;;;;;;;60.50;43.90;;;;;;;-1.52;73.56;101430.66;108601;1274;21997;-77
2022/12/03 03:08:12;;;;;;;60.90;43.30;;;;;;;-1.53;73.72;101433.02;108567;1275;23672;-75
2022/12/03 03:11:07;;;;;;;60.30;42.60;;;;;;;-1.52;73.74;101432.20;108625;1275;21941;-76
2022/12/03 03:13:48;;;;;;;56.70;41.00;;;;;;;-1.51;73.82;101430.86;108479;1274;22397;-76
2022/12/03 03:16:26;;;;;;;59.40;43.00;;;;;;;-1.49;73.82;101431.44;108307;1275;24273;-76
2022/12/03 03:19:18;;;;;;;57.30;41.50;;;;;;;-1.48;73.88;101430.77;108514;1275;21936;-75
2022/12/03 03:21:54;;;;;;;60.70;41.60;;;;;;;-1.45;74.02;101428.30;108507;1275;23602;-75
2022/12/03 03:24:38;;;;;;;55.30;41.40;;;;;;;-1.45;74.01;101429.81;108586;1275;23587;-76
2022/12/03 03:27:11;;;;;;;60.60;42.30;;;;;;;-1.48;73.92;101428.73;108566;1275;23810;-75
2022/12/03 03:29:48;;;;;;;56.10;41.70;;;;;;;-1.49;73.93;101430.24;108542;1275;21926;-76
2022/12/03 03:32:29;;;;;;;;;;;;;;;;;;;;;
2022/12/03 03:34:59;;;;;;;59.30;42.70;;;;;;;-1.45;74.06;101423.34;108493;1275;21930;-75
2022/12/03 03:37:30;;;;;;;57.20;41.30;;;;;;;-1.42;74.14;101425.14;108486;1275;22618;-75
2022/12/03 03:40:30;;;;;;;56.50;39.30;;;;;;;-1.43;74.02;101425.79;108479;1275;21924;-75
2022/12/03 03:43:19;;;;;;;52.50;39.80;;;;;;;-1.47;74.04;101424.15;108522;1274;22401;-74
2022/12/03 03:45:52;;;;;;;55.70;42.40;;;;;;;-1.49;74.17;101421.35;108628;1272;23039;-75
2022/12/03 03:48:29;;;;;;;58.20;41.30;;;;;;;-1.50;74.17;101417.58;108509;1274;21945;-75
2022/12/03 03:51:13;;;;;;;61.90;43.60;;;;;;;-1.47;74.30;101415.26;108520;1275;21926;-75
2022/12/03 03:53:54;;;;;;;58.60;42.60;;;;;;;-1.47;74.19;101414.23;108645;1275;21936;-75
2022/12/03 03:56:40;;;;;;;56.50;42.80;;;;;;;-1.48;74.37;101414.39;108520;1274;21941;-76
2022/12/03 03:59:17;;;;;;;52.70;40.20;;;;;;;-1.51;74.30;101405.92;108526;1275;23037;-76
2022/12/03 04:02:14;;;;;;;;;;;;;;;;;;;;;
2022/12/03 04:05:19;;;;;;;51.90;38.50;;;;;;;-1.47;74.48;101407.91;108497;1275;22270;-75
2022/12/03 04:08:22;;;;;;;;;;;;;;;-1.49;74.36;101407.36;108550;1275;21921;-76
2022/12/03 04:14:05;;;;;;;53.90;39.40;;;;;;;-1.60;74.61;101404.48;108624;1274;22088;-76
2022/12/03 04:16:39;;;;;;;53.20;40.70;;;;;;;-1.58;74.59;101404.20;108504;1275;21931;-77
2022/12/03 04:19:08;;;;;;;;;;;;;;;-1.58;74.61;101403.86;108559;1275;23060;-76
2022/12/03 04:24:47;;;;;;;54.60;41.50;;;;;;;-1.63;74.76;101404.92;108540;1275;21935;-75
2022/12/03 04:30:25;;;;;;;54.40;40.90;;;;;;;-1.63;74.73;101410.03;108233;1281;21938;-76
2022/12/03 04:36:01;;;;;;;50.10;36.50;;;;;;;-1.66;74.65;101401.05;108150;1281;21934;-79
2022/12/03 04:38:39;;;;;;;57.80;39.00;;;;;;;-1.65;74.76;101401.43;108528;1279;21953;-76
2022/12/03 04:41:21;;;;;;;51.20;39.80;;;;;;;-1.65;74.74;101401.45;108153;1280;21966;-76
2022/12/03 04:47:20;;;;;;;54.40;39.90;;;;;;;-1.69;74.77;101400.79;108302;1280;21932;-76
2022/12/03 04:50:10;;;;;;;62.10;43.80;;;;;;;-1.70;74.78;101398.38;108483;1275;22195;-77
2022/12/03 04:52:43;;;;;;;57.80;40.70;;;;;;;-1.70;74.79;101400.75;108484;1275;23017;-77
2022/12/03 04:55:33;;;;;;;51.90;39.80;;;;;;;-1.70;74.73;101402.65;108460;1275;21992;-77
2022/12/03 04:58:13;;;;;;;49.50;38.80;;;;;;;-1.71;74.74;101402.48;108659;1275;22409;-75
2022/12/03 05:00:47;;;;;;;54.30;39.90;;;;;;;-1.73;74.79;101402.07;108140;1280;21979;-75
2022/12/03 05:03:24;;;;;;;54.40;38.60;;;;;;;-1.72;74.76;101401.58;108105;1280;21928;-78
2022/12/03 05:05:53;;;;;;;51.80;39.20;;;;;;;-1.72;74.82;101402.24;108208;1280;23611;-75
2022/12/03 05:08:26;;;;;;;52.10;38.70;;;;;;;-1.72;74.85;101400.02;108139;1275;23582;-75
2022/12/03 05:11:04;;;;;;;55.60;39.50;;;;;;;-1.72;74.86;101393.20;108267;1282;21935;-76
2022/12/03 05:13:35;;;;;;;54.30;38.40;;;;;;;-1.72;74.78;101396.13;108254;1280;22526;-76
2022/12/03 05:16:13;;;;;;;56.80;40.70;;;;;;;-1.73;74.85;101390.80;108158;1281;21937;-76
2022/12/03 05:18:41;;;;;;;57.50;40.20;;;;;;;-1.77;74.70;101384.70;108374;1274;23113;-75
2022/12/03 05:21:28;;;;;;;54.00;38.50;;;;;;;-1.80;74.69;101380.88;108310;1280;22604;-76
2022/12/03 05:24:09;;;;;;;54.70;39.80;;;;;;;-1.81;74.85;101378.63;108445;1280;23673;-76
2022/12/03 05:26:54;;;;;;;55.40;42.50;;;;;;;-1.80;74.91;101380.86;108143;1280;21952;-76
2022/12/03 05:29:30;;;;;;;55.60;42.20;;;;;;;-1.80;74.93;101384.43;108134;1281;23703;-77
2022/12/03 05:32:19;;;;;;;58.50;43.00;;;;;;;-1.83;74.97;101382.49;108370;1277;22048;-76
2022/12/03 05:34:56;;;;;;;52.60;38.30;;;;;;;-1.82;75.02;101385.60;108313;1282;22809;-77
2022/12/03 05:37:41;;;;;;;58.80;40.60;;;;;;;-1.80;75.05;101386.33;107977;1283;23846;-76
2022/12/03 05:40:25;;;;;;;;;;;;;;;;;;;;;
2022/12/03 05:43:00;;;;;;;56.60;40.50;;;;;;;-1.76;75.19;101387.46;108317;1281;23677;-77
2022/12/03 05:45:40;;;;;;;58.20;45.50;;;;;;;-1.76;75.17;101385.94;108261;1280;21923;-76
2022/12/03 05:48:15;;;;;;;57.10;44.10;;;;;;;-1.76;75.10;101381.66;108200;1281;21938;-76
2022/12/03 05:50:55;;;;;;;64.00;44.90;;;;;;;-1.74;75.17;101384.45;108292;1281;22328;-75
2022/12/03 05:53:28;;;;;;;58.20;44.60;;;;;;;-1.70;75.26;101384.73;108171;1281;22110;-76
2022/12/03 05:56:02;;;;;;;59.70;42.40;;;;;;;-1.68;75.16;101380.35;108477;1275;22683;-76
2022/12/03 05:58:32;;;;;;;57.70;44.00;;;;;;;-1.66;75.11;101374.94;108682;1273;21902;-75
2022/12/03 06:01:01;;;;;;;57.70;42.90;;;;;;;-1.63;75.18;101377.26;108506;1275;21941;-77
2022/12/03 06:03:40;;;;;;;55.20;41.50;;;;;;;-1.63;75.13;101374.86;107474;1274;1139885;-76
2022/12/03 06:06:25;;;;;;;;;;;;;;;;;;;;;
2022/12/03 06:08:58;;;;;;;68.00;43.50;;;;;;;-1.63;75.19;101376.40;108452;1275;22791;-76
2022/12/03 06:11:33;;;;;;;66.10;46.20;;;;;;;-1.64;75.06;101378.09;108563;1278;21968;-76
2022/12/03 06:14:04;;;;;;;;;;;;;;;-1.64;75.13;101380.14;108495;1276;21917;-76
2022/12/03 06:16:37;;;;;;;61.10;41.80;;;;;;;-1.71;75.23;101376.33;108587;1275;21984;-77
2022/12/03 06:19:22;;;;;;;60.60;41.60;;;;;;;-1.74;75.24;101373.19;108461;1278;23786;-77
2022/12/03 06:22:02;;;;;;;58.00;40.00;;;;;;;-1.71;75.27;101379.06;108442;1275;22235;-77
2022/12/03 06:24:36;;;;;;;64.00;44.70;;;;;;;-1.69;75.30;101382.20;108497;1275;23674;-77
2022/12/03 06:27:12;;;;;;;64.30;44.30;;;;;;;-1.67;75.32;101382.09;108277;1275;22695;-77
2022/12/03 06:29:47;;;;;;;64.60;44.30;;;;;;;-1.66;75.25;101380.60;108500;1275;24369;-78
2022/12/03 06:32:15;;;;;;;58.30;40.60;;;;;;;-1.64;75.35;101382.52;108510;1277;23046;-78
2022/12/03 06:34:54;;;;;;;67.30;45.10;;;;;;;-1.64;75.20;101379.79;108478;1274;23674;-75
2022/12/03 06:37:37;;;;;;;57.80;42.10;;;;;;;-1.63;75.34;101379.63;108436;1280;21988;-77
2022/12/03 06:40:18;;;;;;;66.20;44.00;;;;;;;-1.61;75.35;101382.27;108485;1278;21932;-77
2022/12/03 06:43:08;;;;;;;62.70;46.60;;;;;;;-1.61;75.31;101381.75;108126;1280;21966;-77
2022/12/03 06:45:47;;;;;;;66.90;42.70;;;;;;;-1.63;75.22;101384.10;108184;1281;23061;-77
2022/12/03 06:48:17;;;;;;;66.30;46.10;;;;;;;-1.64;75.24;101384.20;108302;1270;21979;-78
2022/12/03 06:50:50;;;;;;;65.10;45.40;;;;;;;-1.61;75.33;101387.39;108241;1285;21981;-77
2022/12/03 06:53:38;;;;;;;66.30;45.30;;;;;;;-1.59;75.28;101391.04;108215;1280;23681;-77
2022/12/03 06:56:19;;;;;;;58.40;41.10;;;;;;;-1.57;75.35;101388.69;108164;1281;21933;-78
2022/12/03 06:58:58;;;;;;;64.40;44.40;;;;;;;-1.55;75.41;101386.88;108247;1280;21934;-76
2022/12/03 07:01:31;;;;;;;65.60;45.70;;;;;;;-1.50;75.45;101388.36;108152;1281;22101;-76
2022/12/03 07:04:00;;;;;;;67.90;46.20;;;;;;;-1.50;75.35;101390.94;108189;1281;22736;-77
2022/12/03 07:06:33;;;;;;;66.10;45.70;;;;;;;-1.50;75.28;101390.58;108163;1281;21966;-76
2022/12/03 07:09:10;;;;;;;70.10;46.50;;;;;;;-1.49;75.27;101392.49;108319;1281;23040;-77
2022/12/03 07:11:45;;;;;;;69.20;47.00;;;;;;;-1.52;75.27;101395.83;108129;1281;22169;-77
2022/12/03 07:14:19;;;;;;;77.90;49.50;;;;;;;-1.50;75.38;101397.60;107739;1287;24083;-76
2022/12/03 07:16:48;;;;;;;78.80;46.40;;;;;;;-1.46;75.41;101395.98;107781;1287;22040;-76
2022/12/03 07:19:17;;;;;;;67.20;48.30;;;;;;;-1.42;75.35;101390.31;107170;1292;21945;-76
2022/12/03 07:21:45;;;;;;;78.40;50.10;;;;;;;-1.34;75.49;101388.63;107203;1289;23204;-76
2022/12/03 07:24:13;;;;;;;76.80;49.00;;;;;;;-1.30;75.47;101385.70;107343;1291;22735;-77
2022/12/03 07:26:40;;;;;;;67.90;46.70;;;;;;;-1.25;75.43;101387.36;107701;1286;22099;-79
2022/12/03 07:29:08;;;;;;;68.00;46.60;;;;;;;-1.21;75.42;101379.77;107923;1287;21997;-77
2022/12/03 07:31:36;;;;;;;63.60;46.10;;;;;;;-1.19;75.24;101379.16;107811;1281;23750;-77
2022/12/03 07:34:04;;;;;;;69.00;44.30;;;;;;;-1.21;75.06;101378.92;107954;1286;21946;-77
2022/12/03 07:36:33;;;;;;;77.50;49.00;;;;;;;-1.21;75.14;101381.48;107959;1283;21939;-77
2022/12/03 07:39:04;;;;;;;75.70;48.70;;;;;;;-1.16;75.24;101381.25;107971;1286;25068;-76
2022/12/03 07:41:34;;;;;;;72.30;46.70;;;;;;;-1.12;75.24;101380.02;107753;1286;24592;-76
2022/12/03 07:44:11;;;;;;;71.10;45.70;;;;;;;-1.13;75.09;101379.46;108075;1287;21951;-77
2022/12/03 07:46:46;;;;;;;70.60;48.50;;;;;;;-1.14;75.06;101380.45;107984;1286;21934;-76
2022/12/03 07:49:16;;;;;;;74.50;48.20;;;;;;;-1.11;75.13;101384.83;107611;1289;21941;-76
2022/12/03 07:51:52;;;;;;;69.20;47.70;;;;;;;-1.08;75.16;101379.95;107512;1286;21930;-76
2022/12/03 07:54:27;;;;;;;71.80;47.60;;;;;;;-1.07;75.06;101377.23;107829;1286;21934;-78
2022/12/03 07:56:56;;;;;;;72.80;48.40;;;;;;;-1.05;75.01;101376.09;107499;1289;21955;-80
2022/12/03 07:59:35;;;;;;;72.30;47.90;;;;;;;-1.03;75.14;101374.62;107951;1289;22344;-83
2022/12/03 08:02:44;;;;;;;75.90;49.80;;;;;;;-1.00;75.10;101377.42;108286;1289;21961;-81
2022/12/03 08:06:01;;;;;;;70.60;46.80;;;;;;;-1.02;75.06;101382.67;108200;1289;21957;-84
2022/12/03 08:09:11;;;;;;;71.80;48.70;;;;;;;-1.04;74.91;101385.36;108948;1283;22065;-86
2022/12/03 08:12:04;;;;;;;70.80;50.20;;;;;;;-1.05;74.92;101384.63;108701;1283;21968;-86
2022/12/03 08:14:34;;;;;;;78.10;50.60;;;;;;;-1.03;74.84;101384.70;107970;1283;21941;-84
2022/12/03 08:17:22;;;;;;;74.70;51.10;;;;;;;-1.01;74.94;101383.20;108735;1283;22824;-83
2022/12/03 08:19:59;;;;;;;68.10;48.60;;;;;;;-0.99;74.91;101376.41;108795;1283;23145;-85
2022/12/03 08:22:46;;;;;;;78.10;51.60;;;;;;;-0.95;74.97;101371.91;108868;1283;21944;-86
2022/12/03 08:25:24;;;;;;;;;;;;;;;-0.88;75.16;101371.58;108843;1284;23748;-84
2022/12/03 08:28:17;;;;;;;71.20;48.20;;;;;;;-0.89;75.18;101373.61;108848;1279;21942;-84
2022/12/03 08:31:09;;;;;;;74.30;49.90;;;;;;;-0.88;75.07;101375.15;108732;1284;22183;-85
2022/12/03 08:33:50;;;;;;;73.70;51.30;;;;;;;-0.87;75.09;101378.95;108902;1275;22994;-84
2022/12/03 08:36:40;;;;;;;89.10;60.90;;;;;;;-0.87;74.97;101378.78;108882;1275;25027;-87
2022/12/03 08:39:54;;;;;;;84.70;58.20;;;;;;;-0.86;75.06;101380.17;108909;1275;23620;-84
2022/12/03 08:42:55;;;;;;;100.80;65.60;;;;;;;-0.85;75.00;101381.56;108993;1278;21927;-86
2022/12/03 08:45:33;;;;;;;97.60;63.60;;;;;;;-0.81;75.05;101381.34;109088;1275;21936;-84
2022/12/03 08:49:13;;;;;;;94.30;65.60;;;;;;;-0.74;75.09;101381.35;109173;1281;21917;-87
2022/12/03 08:51:53;;;;;;;101.70;65.20;;;;;;;-0.72;75.10;101375.72;108916;1283;23063;-85
2022/12/03 08:55:19;;;;;;;;;;;;;;;;;;;;;
2022/12/03 08:58:50;;;;;;;96.20;64.70;;;;;;;-0.69;74.88;101382.83;108797;1284;21937;-85
2022/12/03 09:01:50;;;;;;;87.50;59.40;;;;;;;-0.69;75.05;101381.11;108263;1289;22133;-84
2022/12/03 09:04:55;;;;;;;;;;;;;;;-0.66;74.98;101375.19;108409;1285;21939;-86
2022/12/03 09:07:57;;;;;;;79.70;56.80;;;;;;;-0.74;75.02;101375.00;108655;1278;22402;-85
2022/12/03 09:10:51;;;;;;;87.00;62.20;;;;;;;-0.73;75.12;101370.59;108723;1286;21950;-86
2022/12/03 09:13:53;;;;;;;;;;;;;;;;;;;;;
2022/12/03 09:16:56;;;;;;;130.10;77.30;;;;;;;-0.54;75.16;101356.66;108959;1286;22193;-87
2022/12/03 09:19:53;;;;;;;;;;;;;;;;;;;;;
2022/12/03 09:22:38;;;;;;;;;;;;;;;;;;;;;
2022/12/03 09:25:37;;;;;;;89.50;62.70;;;;;;;-0.36;74.89;101353.48;109055;1280;21968;-86
2022/12/03 09:28:17;;;;;;;76.00;55.30;;;;;;;-0.40;74.51;101350.33;108889;1284;22609;-87
2022/12/03 09:31:21;;;;;;;83.10;56.20;;;;;;;-0.45;74.41;101345.45;108940;1283;23016;-86
2022/12/03 09:34:34;;;;;;;84.20;55.30;;;;;;;-0.46;74.44;101346.09;108902;1274;21971;-86
2022/12/03 09:37:15;;;;;;;79.00;56.50;;;;;;;-0.47;74.48;101343.67;108921;1280;21962;-86
2022/12/03 09:40:20;;;;;;;82.80;59.40;;;;;;;-0.45;74.62;101346.11;108505;1275;21928;-86
2022/12/03 09:43:37;;;;;;;85.70;58.20;;;;;;;-0.39;74.77;101348.65;108814;1276;21940;-87
2022/12/03 09:46:48;;;;;;;;;;;;;;;;;;;;;
2022/12/03 09:49:31;;;;;;;87.80;64.10;;;;;;;-0.19;74.82;101346.17;109009;1284;21959;-85
2022/12/03 09:52:14;;;;;;;83.30;59.50;;;;;;;-0.13;74.67;101344.27;108966;1283;21950;-86
2022/12/03 09:55:16;;;;;;;80.50;57.40;;;;;;;-0.09;74.61;101342.30;109193;1281;21948;-88
2022/12/03 09:58:27;;;;;;;79.60;56.70;;;;;;;-0.12;74.04;101332.82;109313;1281;21970;-84
2022/12/03 10:01:29;;;;;;;76.80;57.30;;;;;;;-0.13;74.24;101328.86;109197;1280;21966;-86
2022/12/03 10:04:19;;;;;;;83.70;58.00;;;;;;;-0.12;74.23;101321.70;108664;1287;21969;-85
2022/12/03 10:07:21;;;;;;;83.40;59.40;;;;;;;-0.14;74.04;101321.48;108721;1286;21943;-85
2022/12/03 10:10:03;;;;;;;84.50;60.10;;;;;;;-0.10;74.19;101326.70;108233;1292;21964;-88
2022/12/03 10:12:38;;;;;;;84.60;61.80;;;;;;;-0.10;74.02;101321.24;108349;1289;21984;-87
2022/12/03 10:16:10;;;;;;;;;;;;;;;;;;;;;
2022/12/03 10:19:00;;;;;;;91.40;64.30;;;;;;;-0.06;74.00;101316.18;107571;1295;21957;-88
2022/12/03 10:21:54;;;;;;;87.10;61.60;;;;;;;-0.06;74.03;101314.64;107603;1295;23636;-86
2022/12/03 10:24:38;;;;;;;79.20;58.80;;;;;;;-0.06;73.80;101318.56;107519;1297;22247;-85
2022/12/03 10:27:33;;;;;;;79.70;57.70;;;;;;;-0.11;73.73;101319.66;107277;1295;22084;-86
2022/12/03 10:30:40;;;;;;;;;;;;;;;;;;;;;
2022/12/03 10:33:46;;;;;;;85.80;60.90;;;;;;;-0.20;73.74;101322.89;108007;1292;21967;-87
2022/12/03 10:36:44;;;;;;;87.40;64.90;;;;;;;-0.22;73.69;101319.45;108203;1287;22051;-85
2022/12/03 10:39:54;;;;;;;94.20;62.70;;;;;;;-0.19;73.82;101315.39;108480;1287;23176;-87
2022/12/03 10:42:33;;;;;;;86.70;60.40;;;;;;;-0.16;73.82;101312.71;108788;1286;23631;-86
2022/12/03 10:45:25;;;;;;;90.90;65.20;;;;;;;-0.17;73.69;101312.69;109421;1279;21955;-85
2022/12/03 10:48:27;;;;;;;90.00;64.60;;;;;;;-0.15;73.77;101313.09;109399;1280;22423;-85
2022/12/03 10:52:11;;;;;;;89.10;63.30;;;;;;;-0.15;73.91;101313.75;109115;1284;23611;-85
2022/12/03 10:54:48;;;;;;;87.70;62.40;;;;;;;-0.16;73.82;101311.86;108432;1282;21968;-81
2022/12/03 10:57:16;;;;;;;93.20;69.70;;;;;;;-0.14;73.80;101306.27;108399;1283;21949;-82
2022/12/03 10:59:47;;;;;;;102.90;70.30;;;;;;;-0.11;73.77;101305.48;108370;1286;21903;-82
2022/12/03 11:02:23;;;;;;;96.10;68.60;;;;;;;-0.04;73.97;101311.61;108186;1284;23710;-83
2022/12/03 11:04:56;;;;;;;100.50;70.20;;;;;;;-0.01;73.92;101311.15;108538;1284;22073;-82
2022/12/03 11:07:25;;;;;;;106.80;72.70;;;;;;;0.04;73.90;101311.59;108394;1279;23618;-83
2022/12/03 11:09:57;;;;;;;94.90;72.60;;;;;;;0.06;73.85;101311.29;108631;1279;23390;-81
2022/12/03 11:12:33;;;;;;;124.90;86.30;;;;;;;0.08;73.92;101311.34;108881;1268;21939;-82
2022/12/03 11:15:05;;;;;;;114.90;84.00;;;;;;;0.09;73.79;101306.39;108906;1279;22006;-82
2022/12/03 11:17:46;;;;;;;97.30;70.00;;;;;;;0.11;73.89;101301.30;108860;1279;23055;-83
2022/12/03 11:20:19;;;;;;;112.30;78.90;;;;;;;0.11;73.82;101303.02;108835;1279;23683;-83
2022/12/03 11:22:57;;;;;;;114.20;84.30;;;;;;;0.11;73.84;101299.61;109081;1278;22707;-82
2022/12/03 11:25:30;;;;;;;104.70;74.90;;;;;;;0.13;73.78;101300.48;108976;1278;23587;-79
2022/12/03 11:28:20;;;;;;;96.70;70.80;;;;;;;0.13;73.74;101296.39;108894;1278;21998;-81
2022/12/03 11:31:01;;;;;;;98.90;74.90;;;;;;;0.13;73.77;101296.91;109158;1269;21977;-80
2022/12/03 11:33:36;;;;;;;105.80;73.20;;;;;;;0.14;73.82;101297.59;108924;1278;21928;-80
2022/12/03 11:36:04;;;;;;;133.70;93.80;;;;;;;0.16;73.77;101296.79;108750;1285;21936;-80
2022/12/03 11:38:44;;;;;;;98.70;73.00;;;;;;;0.19;73.80;101295.30;108646;1282;21983;-81
2022/12/03 11:41:36;;;;;;;112.20;79.00;;;;;;;0.18;73.70;101291.00;108691;1284;23028;-81
2022/12/03 11:44:34;;;;;;;129.70;90.90;;;;;;;0.18;73.69;101286.54;108633;1280;21947;-80
2022/12/03 11:47:18;;;;;;;100.10;74.90;;;;;;;0.17;73.72;101285.34;108635;1285;22225;-80
2022/12/03 11:49:56;;;;;;;98.70;76.00;;;;;;;0.17;73.86;101284.14;108555;1280;21959;-79
2022/12/03 11:52:31;;;;;;;121.60;89.60;;;;;;;0.22;73.90;101283.04;108762;1273;23568;-81
2022/12/03 11:55:15;;;;;;;102.50;75.10;;;;;;;0.26;73.96;101274.72;108646;1278;21932;-83
2022/12/03 11:57:44;;;;;;;107.80;78.90;;;;;;;0.29;73.93;101270.84;108468;1285;22055;-84
2022/12/03 12:00:28;;;;;;;109.50;82.40;;;;;;;0.29;73.85;101271.19;108660;1280;23786;-83
2022/12/03 12:03:00;;;;;;;119.10;86.10;;;;;;;0.29;73.87;101263.82;108822;1278;23115;-83
2022/12/03 12:05:32;;;;;;;116.00;79.60;;;;;;;0.30;73.87;101259.73;108232;1288;21972;-82
2022/12/03 12:08:03;;;;;;;109.40;77.20;;;;;;;0.33;73.70;101264.05;108047;1289;23069;-83
2022/12/03 12:10:47;;;;;;;109.80;79.80;;;;;;;0.32;73.83;101258.73;108337;1289;22883;-82
2022/12/03 12:13:33;;;;;;;129.10;88.70;;;;;;;0.32;73.91;101257.72;108451;1285;21951;-84
2022/12/03 12:16:04;;;;;;;108.90;77.80;;;;;;;0.30;73.76;101257.83;108610;1283;22876;-82
2022/12/03 12:18:43;;;;;;;101.40;73.20;;;;;;;0.26;73.73;101248.86;108551;1281;22179;-81
2022/12/03 12:21:46;;;;;;;111.70;78.40;;;;;;;0.23;73.89;101245.21;108340;1285;23851;-85
2022/12/03 12:24:28;;;;;;;100.70;71.40;;;;;;;0.23;73.90;101239.90;108433;1279;21936;-82
2022/12/03 12:27:03;;;;;;;92.80;69.80;;;;;;;0.19;73.91;101239.15;108555;1278;24292;-80
2022/12/03 12:29:31;;;;;;;99.10;71.70;;;;;;;0.16;74.05;101242.00;108714;1278;22407;-80
2022/12/03 12:32:29;;;;;;;97.90;71.50;;;;;;;0.16;74.02;101242.00;108721;1279;22292;-81
2022/12/03 12:35:17;;;;;;;95.50;68.70;;;;;;;0.16;74.12;101240.45;108765;1278;24282;-82
2022/12/03 12:37:49;;;;;;;91.70;67.60;;;;;;;0.16;74.14;101238.06;108845;1278;21981;-80
2022/12/03 12:40:34;;;;;;;94.70;69.90;;;;;;;0.14;74.03;101240.77;108877;1278;22067;-81
2022/12/03 12:43:22;;;;;;;101.10;76.40;;;;;;;0.14;74.07;101244.70;108824;1277;23030;-81
2022/12/03 12:46:04;;;;;;;107.50;77.10;;;;;;;0.15;74.21;101241.99;108728;1275;23670;-80
2022/12/03 12:48:53;;;;;;;105.30;73.60;;;;;;;0.17;74.23;101238.08;108844;1275;21995;-83
2022/12/03 12:51:26;;;;;;;97.60;71.40;;;;;;;0.17;74.24;101239.45;108837;1275;21939;-82
2022/12/03 12:53:56;;;;;;;100.20;74.50;;;;;;;0.19;74.20;101239.31;108800;1278;21967;-81
2022/12/03 12:56:30;;;;;;;102.00;74.60;;;;;;;0.22;74.24;101244.68;108706;1279;21927;-82